Pagrindinis puslapis
METAR-TAF:

METAR-TAF

Oro uostai :

Silvio Pettirossi tarptautinis oro uostas

Asunsjonas, Paragvajus

platuma: 25-16S, ilguma: 057-38W, Aukštis: 101 m

Dabartinis oras

Ataskaita buvo paskelbta 55 minutes, ne 00:00 UTC
Vėjas 12 kt iš Pietų/Pietvakarių
Temperatūra 21°C
Drėgmė 64%
Slėgis 1019 hPa
Matomumas 10 km arba daugiau
nėra debesų žemiau 1500 m ir nėra kamuolinių lietaus debesų

METAR: SGAS 240000Z 20012KT CAVOK 21/14 Q1019

Laikas: 20:55 (00:55 UTC)

Prognozė

Ataskaita buvo paskelbta 2 valandos ir 45 minutes, ne 22:10 UTC
Prognozė galioja nuo 24 metu 00 UTC su 25 metu 00 UTC
Vėjas 10 kt iš Pietvakarių
Matomumas 10 km arba daugiau
Su prošvaistėmis ne aukštis 3000 ft
Tapsmas
nuo 24 metu 02 UTC su 24 metu 04 UTC
Matomumas 10 km arba daugiau
nėra debesų žemiau 1500 m ir nėra kamuolinių lietaus debesų

TAF: SGAS 232210Z 2400/2500 22010KT 9999 BKN030 TX30/2419Z TN14/2410Z BECMG 2402/2404 CAVOK

Orai ataskaitas ir orų prognozės (METAR, TAF).

turimą stotys yra geltonos ir raudonos taškus žemėlapyje.

Perkelti pele per norėdami pamatyti stoties vardą.

Tada spustelėkite, norėdami matyti oro stebėjimo ir prognozės.

Norėdami pakeisti žemėlapį: spustelėkite ant žalios mygtukų su juodo kryžiaus žemyn,; žalią mygtuką su brūkšneliu, jei norite nutolinti; arba žalių rodyklių gretimoms žemėlapius.


METAR-TAF: